createdAt,value
2019-03-04T00:01:15.556Z,99.90
2019-03-04T00:03:46.072Z,99.90
2019-03-04T00:06:16.497Z,99.90
2019-03-04T00:08:46.925Z,99.90
2019-03-04T00:11:17.662Z,99.90
2019-03-04T00:13:48.089Z,99.90
2019-03-04T00:16:18.732Z,99.90
2019-03-04T00:18:49.125Z,99.90
2019-03-04T00:21:19.689Z,99.90
2019-03-04T00:23:50.113Z,99.90
2019-03-04T00:26:20.529Z,99.90
2019-03-04T00:28:50.957Z,99.90
2019-03-04T00:31:21.385Z,99.90
2019-03-04T00:33:51.809Z,99.90
2019-03-04T00:36:22.238Z,99.90
2019-03-04T00:38:52.665Z,99.90
2019-03-04T00:41:23.102Z,99.90
2019-03-04T00:43:53.581Z,99.90
2019-03-04T00:46:24.061Z,99.90
2019-03-04T00:48:54.473Z,99.90
2019-03-04T00:51:24.921Z,99.90
2019-03-04T00:53:55.648Z,99.90
2019-03-04T00:56:26.061Z,99.90
2019-03-04T00:58:56.501Z,99.90
2019-03-04T01:01:26.917Z,99.90
2019-03-04T01:03:57.346Z,99.90
2019-03-04T01:06:27.769Z,99.90
2019-03-04T01:08:58.270Z,99.90
2019-03-04T01:11:28.797Z,99.90
2019-03-04T01:13:59.256Z,99.90
2019-03-04T01:16:29.686Z,99.90
2019-03-04T01:19:00.109Z,99.90
2019-03-04T01:21:30.540Z,99.90
2019-03-04T01:24:01.092Z,99.90
2019-03-04T01:26:31.507Z,99.90
2019-03-04T01:29:01.923Z,99.90
2019-03-04T01:31:32.401Z,99.90
2019-03-04T01:34:02.851Z,99.90
2019-03-04T01:36:33.338Z,99.90
2019-03-04T01:39:04.755Z,99.90
2019-03-04T01:41:35.182Z,99.90
2019-03-04T01:44:05.670Z,99.90
2019-03-04T01:46:36.039Z,99.90
2019-03-04T01:49:06.482Z,99.90
2019-03-04T01:51:36.993Z,99.90
2019-03-04T01:54:07.429Z,99.90
2019-03-04T01:56:37.977Z,99.90
2019-03-04T01:59:08.374Z,99.90
2019-03-04T02:01:39.006Z,99.90
2019-03-04T02:04:09.448Z,99.90
2019-03-04T02:06:39.862Z,99.90
2019-03-04T02:09:10.291Z,99.90
2019-03-04T02:11:40.713Z,99.90
2019-03-04T02:14:11.413Z,99.90
2019-03-04T02:16:41.841Z,99.90
2019-03-04T02:19:12.305Z,99.90
2019-03-04T02:21:42.733Z,99.90
2019-03-04T02:24:31.589Z,99.90
2019-03-04T02:27:02.378Z,99.90
2019-03-04T02:29:32.852Z,99.90
2019-03-04T02:32:03.263Z,99.90
2019-03-04T02:34:33.721Z,99.90
2019-03-04T02:37:04.146Z,99.90
2019-03-04T02:39:34.562Z,99.90
2019-03-04T02:42:05.003Z,99.90
2019-03-04T02:44:35.582Z,99.90
2019-03-04T02:47:06.083Z,99.90
2019-03-04T02:49:36.486Z,99.90
2019-03-04T02:52:06.898Z,99.90
2019-03-04T02:54:37.330Z,99.90
2019-03-04T02:57:07.754Z,99.90
2019-03-04T02:59:38.288Z,99.90
2019-03-04T03:02:09.297Z,99.90
2019-03-04T03:04:39.749Z,99.90
2019-03-04T03:07:10.154Z,99.90
2019-03-04T03:09:40.607Z,99.90
2019-03-04T03:12:11.217Z,99.90
2019-03-04T03:14:41.988Z,99.90
2019-03-04T03:17:12.382Z,99.90
2019-03-04T03:19:42.905Z,99.90
2019-03-04T03:22:13.353Z,99.90
2019-03-04T03:24:43.784Z,99.90
2019-03-04T03:27:14.382Z,99.90
2019-03-04T03:29:44.789Z,99.90
2019-03-04T03:32:15.195Z,99.90
2019-03-04T03:34:45.597Z,99.90
2019-03-04T03:37:16.095Z,99.90
2019-03-04T03:39:46.550Z,99.90
2019-03-04T03:42:19.020Z,99.90
2019-03-04T03:44:49.176Z,99.90
2019-03-04T03:47:19.626Z,99.90
2019-03-04T03:49:50.100Z,99.90
2019-03-04T03:52:20.526Z,99.90
2019-03-04T03:54:51.058Z,99.90
2019-03-04T03:57:21.394Z,99.90
2019-03-04T03:59:51.806Z,99.90
2019-03-04T04:02:22.303Z,99.90
2019-03-04T04:04:52.766Z,99.90
2019-03-04T04:07:23.191Z,99.90
2019-03-04T04:09:53.929Z,99.90
2019-03-04T04:12:24.357Z,99.90
2019-03-04T04:14:54.781Z,99.90
2019-03-04T04:17:25.277Z,99.90
2019-03-04T04:19:55.738Z,99.90
2019-03-04T04:22:26.269Z,99.90
2019-03-04T04:24:56.618Z,99.90
2019-03-04T04:27:27.019Z,99.90
2019-03-04T04:29:57.445Z,99.90
2019-03-04T04:32:27.962Z,99.90
2019-03-04T04:34:58.421Z,99.90
2019-03-04T04:37:28.831Z,99.90
2019-03-04T04:39:59.291Z,99.90
2019-03-04T04:42:31.845Z,99.90
2019-03-04T04:45:02.361Z,99.90
2019-03-04T04:47:32.857Z,99.90
2019-03-04T04:50:03.317Z,99.90
2019-03-04T04:52:33.844Z,99.90
2019-03-04T04:55:04.286Z,99.90
2019-03-04T04:57:34.701Z,99.90
2019-03-04T05:00:07.200Z,99.90
2019-03-04T05:02:38.627Z,99.90
2019-03-04T05:05:09.181Z,99.90
2019-03-04T05:07:39.610Z,99.90
2019-03-04T05:10:14.308Z,99.90
2019-03-04T05:12:44.739Z,99.90
2019-03-04T05:15:15.185Z,99.90
2019-03-04T05:17:45.594Z,99.90
2019-03-04T05:20:18.244Z,99.90
2019-03-04T05:22:48.697Z,99.90
2019-03-04T05:25:19.125Z,99.90
2019-03-04T05:27:49.553Z,99.90
2019-03-04T05:30:20.646Z,99.90
2019-03-04T05:32:51.193Z,99.90
2019-03-04T05:35:21.652Z,99.90
2019-03-04T05:37:52.214Z,99.90
2019-03-04T05:40:22.610Z,99.90
2019-03-04T05:42:53.151Z,99.90
2019-03-04T05:45:23.669Z,99.90
2019-03-04T05:47:54.153Z,99.90
2019-03-04T05:50:24.625Z,99.90
2019-03-04T05:52:55.052Z,99.90
2019-03-04T05:55:25.663Z,99.90
2019-03-04T05:57:56.067Z,99.90
2019-03-04T06:00:28.654Z,99.90
2019-03-04T06:02:59.137Z,99.90
2019-03-04T06:05:29.540Z,99.90
2019-03-04T06:08:02.340Z,99.90
2019-03-04T06:10:32.794Z,99.90
2019-03-04T06:13:03.277Z,99.90
2019-03-04T06:15:33.769Z,99.90
2019-03-04T06:18:04.294Z,99.90
2019-03-04T06:20:34.662Z,99.90
2019-03-04T06:23:05.090Z,99.90
2019-03-04T06:25:35.529Z,99.90
2019-03-04T06:28:05.947Z,99.90
2019-03-04T06:30:36.369Z,99.90
2019-03-04T06:33:06.798Z,99.90
2019-03-04T06:35:37.239Z,99.90
2019-03-04T06:38:07.652Z,99.90
2019-03-04T06:40:38.077Z,99.90
2019-03-04T06:43:08.560Z,99.90
2019-03-04T06:45:39.061Z,99.90
2019-03-04T06:48:09.629Z,99.90
2019-03-04T06:50:54.074Z,99.90
2019-03-04T06:53:50.526Z,99.90
2019-03-04T06:56:36.519Z,99.90
2019-03-04T06:59:11.834Z,99.90
2019-03-04T07:01:46.062Z,99.90
2019-03-04T07:04:24.948Z,99.90
2019-03-04T07:06:55.465Z,99.90
2019-03-04T07:09:25.894Z,99.90
2019-03-04T07:11:56.625Z,99.90
2019-03-04T07:14:27.105Z,99.90
2019-03-04T07:16:57.445Z,99.90
2019-03-04T07:19:29.493Z,99.90
2019-03-04T07:21:59.973Z,99.90
2019-03-04T07:24:30.398Z,99.90
2019-03-04T07:27:00.983Z,99.90
2019-03-04T07:29:50.210Z,99.90
2019-03-04T07:32:20.634Z,99.90
2019-03-04T07:34:51.167Z,99.90
2019-03-04T07:37:21.578Z,99.90
2019-03-04T07:39:52.008Z,99.90
2019-03-04T07:42:22.533Z,99.90
2019-03-04T07:44:53.281Z,99.90
2019-03-04T07:47:23.697Z,99.90
2019-03-04T07:49:54.158Z,99.90
2019-03-04T07:52:24.728Z,99.90
2019-03-04T07:54:55.196Z,99.90
2019-03-04T07:57:25.660Z,99.90
2019-03-04T07:59:56.136Z,99.90
2019-03-04T08:02:26.467Z,99.90
2019-03-04T08:04:56.914Z,99.90
2019-03-04T08:07:47.459Z,99.90
2019-03-04T08:10:53.668Z,99.90
2019-03-04T08:13:34.693Z,99.90
2019-03-04T08:16:05.377Z,99.90
2019-03-04T08:18:35.843Z,99.90
2019-03-04T08:21:06.421Z,99.90
2019-03-04T08:23:36.849Z,99.90
2019-03-04T08:26:07.662Z,99.90
2019-03-04T08:28:38.217Z,99.90
2019-03-04T08:31:09.066Z,99.90
2019-03-04T08:33:39.614Z,99.90
2019-03-04T08:36:28.866Z,99.90
2019-03-04T08:38:59.309Z,99.90
2019-03-04T08:41:48.456Z,99.90
2019-03-04T08:44:19.002Z,99.90
2019-03-04T08:46:49.730Z,99.90
2019-03-04T08:49:20.278Z,99.90
2019-03-04T08:51:50.643Z,99.90
2019-03-04T08:54:21.089Z,99.90
2019-03-04T08:56:51.517Z,99.90
2019-03-04T08:59:21.945Z,99.90
2019-03-04T09:01:52.459Z,99.90
2019-03-04T09:04:22.913Z,99.90
2019-03-04T09:06:53.306Z,99.90
2019-03-04T09:09:23.754Z,99.90
2019-03-04T09:11:54.181Z,99.90
2019-03-04T09:14:24.609Z,99.90
2019-03-04T09:16:55.050Z,99.90
2019-03-04T09:19:25.486Z,99.90
2019-03-04T09:21:55.892Z,99.90
2019-03-04T09:24:26.318Z,99.90
2019-03-04T09:26:56.746Z,99.90
2019-03-04T09:29:27.102Z,99.90
2019-03-04T09:31:57.492Z,99.90
2019-03-04T09:34:27.990Z,99.90
2019-03-04T09:36:58.453Z,99.90
2019-03-04T09:39:28.878Z,99.90
2019-03-04T09:42:12.621Z,99.90
2019-03-04T09:44:43.067Z,99.90
2019-03-04T09:47:13.691Z,99.90
2019-03-04T09:49:44.333Z,99.90
2019-03-04T09:52:14.734Z,99.90
2019-03-04T09:54:45.179Z,99.90
2019-03-04T09:57:15.601Z,99.90
2019-03-04T09:59:47.026Z,99.90
2019-03-04T10:02:28.687Z,99.90
2019-03-04T10:05:58.052Z,99.90
2019-03-04T10:08:41.576Z,99.90
2019-03-04T10:11:33.833Z,99.90
2019-03-04T10:14:43.154Z,99.90
2019-03-04T10:17:38.358Z,99.90
2019-03-04T10:20:49.861Z,99.90
2019-03-04T10:24:02.581Z,99.90
2019-03-04T10:27:03.264Z,99.90
2019-03-04T10:30:03.720Z,99.90
2019-03-04T10:33:31.881Z,99.90
2019-03-04T10:36:23.610Z,99.90
2019-03-04T10:39:35.028Z,99.90
2019-03-04T10:42:42.233Z,99.90
2019-03-04T10:45:29.249Z,99.90
2019-03-04T10:47:59.691Z,98.40
2019-03-04T10:50:30.194Z,94.40
2019-03-04T10:53:00.987Z,93.20
2019-03-04T10:55:41.222Z,92.00
2019-03-04T10:58:03.525Z,91.50
2019-03-04T11:00:33.946Z,92.40
2019-03-04T11:03:22.088Z,86.10
2019-03-04T11:05:52.721Z,75.40
2019-03-04T11:08:28.374Z,67.80
2019-03-04T11:10:59.016Z,75.30
2019-03-04T11:13:29.481Z,83.00
2019-03-04T11:15:59.873Z,79.00
2019-03-04T11:18:30.286Z,71.00
2019-03-04T11:21:00.757Z,63.80
2019-03-04T11:23:31.398Z,61.30
2019-03-04T11:26:01.900Z,59.70
2019-03-04T11:28:38.341Z,57.10
2019-03-04T11:31:09.074Z,56.70
2019-03-04T11:33:39.516Z,55.40
2019-03-04T11:36:09.929Z,53.80
2019-03-04T11:38:45.633Z,49.40
2019-03-04T11:41:18.837Z,52.20
2019-03-04T11:43:49.322Z,55.70
2019-03-04T11:46:22.547Z,61.10
2019-03-04T11:48:53.109Z,69.10
2019-03-04T11:51:23.550Z,75.80
2019-03-04T11:53:53.956Z,88.80
2019-03-04T11:56:24.394Z,91.70
2019-03-04T11:58:55.055Z,94.20
2019-03-04T12:01:35.306Z,96.40
2019-03-04T12:04:06.049Z,94.20
2019-03-04T12:06:36.527Z,86.50
2019-03-04T12:09:10.429Z,69.60
2019-03-04T12:11:40.900Z,59.60
2019-03-04T12:14:11.321Z,51.10
2019-03-04T12:16:41.745Z,48.30
2019-03-04T12:19:12.175Z,47.30
2019-03-04T12:21:42.616Z,45.70
2019-03-04T12:24:14.139Z,41.40
2019-03-04T12:26:44.592Z,40.00
2019-03-04T12:29:15.020Z,43.20
2019-03-04T12:31:59.989Z,49.40
2019-03-04T12:34:32.462Z,59.40
2019-03-04T12:37:02.877Z,76.70
2019-03-04T12:39:33.307Z,85.80
2019-03-04T12:42:03.734Z,96.00
2019-03-04T12:44:34.180Z,99.90
2019-03-04T12:47:05.213Z,99.90
2019-03-04T12:49:35.673Z,99.20
2019-03-04T12:52:06.156Z,84.70
2019-03-04T12:54:36.629Z,80.90
2019-03-04T12:57:07.318Z,76.60
2019-03-04T12:59:39.385Z,74.50
2019-03-04T13:02:09.888Z,79.10
2019-03-04T13:04:40.364Z,87.50
2019-03-04T13:07:10.767Z,91.00
2019-03-04T13:09:41.496Z,90.30
2019-03-04T13:12:12.034Z,83.40
2019-03-04T13:14:42.457Z,71.70
2019-03-04T13:17:25.942Z,62.90
2019-03-04T13:19:56.485Z,49.90
2019-03-04T13:22:33.206Z,42.10
2019-03-04T13:25:03.752Z,36.70
2019-03-04T13:27:45.521Z,36.70
2019-03-04T13:30:21.037Z,36.90
2019-03-04T13:32:51.811Z,37.40
2019-03-04T13:35:24.868Z,38.80
2019-03-04T13:38:22.772Z,43.60
2019-03-04T13:40:53.258Z,47.90
2019-03-04T13:43:23.774Z,52.40
2019-03-04T13:45:54.365Z,56.00
2019-03-04T13:48:31.662Z,61.00
2019-03-04T13:51:03.364Z,66.30
2019-03-04T13:53:33.838Z,70.00
2019-03-04T13:56:04.303Z,71.50
2019-03-04T13:58:34.774Z,77.00
2019-03-04T14:01:05.577Z,82.70
2019-03-04T14:03:36.378Z,87.80
2019-03-04T14:06:21.736Z,90.80
2019-03-04T14:08:52.322Z,93.90
2019-03-04T14:11:22.964Z,98.20
2019-03-04T14:14:17.173Z,99.90
2019-03-04T14:16:47.599Z,99.90
2019-03-04T14:19:17.993Z,99.90
2019-03-04T14:21:48.453Z,99.90
2019-03-04T14:24:20.074Z,99.90
2019-03-04T14:26:50.683Z,99.90
2019-03-04T14:29:21.165Z,99.90
2019-03-04T14:32:03.689Z,99.90
2019-03-04T14:34:34.104Z,99.90
2019-03-04T14:37:14.538Z,99.90
2019-03-04T14:39:45.044Z,99.90
2019-03-04T14:42:33.309Z,95.60
2019-03-04T14:45:22.520Z,90.80
2019-03-04T14:47:53.151Z,77.10
2019-03-04T14:50:23.895Z,70.00
2019-03-04T14:52:54.405Z,64.10
2019-03-04T14:55:24.954Z,60.10
2019-03-04T14:57:55.418Z,55.80
2019-03-04T15:00:33.377Z,54.50
2019-03-04T15:03:03.792Z,54.50
2019-03-04T15:05:34.218Z,53.10
2019-03-04T15:08:04.948Z,51.80
2019-03-04T15:10:35.293Z,54.60
2019-03-04T15:13:05.807Z,57.80
2019-03-04T15:15:36.437Z,60.80
2019-03-04T15:18:06.948Z,63.80
2019-03-04T15:20:37.787Z,69.20
2019-03-04T15:23:08.228Z,73.30
2019-03-04T15:25:38.850Z,74.70
2019-03-04T15:28:16.982Z,77.90
2019-03-04T15:30:48.828Z,82.40
2019-03-04T15:33:19.534Z,84.70
2019-03-04T15:35:50.173Z,89.10
2019-03-04T15:38:20.636Z,90.00
2019-03-04T15:40:51.150Z,93.30
2019-03-04T15:43:21.749Z,94.20
2019-03-04T15:45:53.031Z,94.80
2019-03-04T15:48:24.714Z,99.90
2019-03-04T15:50:55.846Z,99.90
2019-03-04T15:53:26.463Z,99.90
2019-03-04T15:55:56.903Z,96.20
2019-03-04T15:58:27.430Z,88.40
2019-03-04T16:00:58.369Z,76.40
2019-03-04T16:03:28.805Z,74.70
2019-03-04T16:05:59.310Z,72.30
2019-03-04T16:08:29.742Z,68.20
2019-03-04T16:11:00.179Z,64.00
2019-03-04T16:13:38.861Z,64.10
2019-03-04T16:16:09.489Z,65.60
2019-03-04T16:18:39.949Z,68.30
2019-03-04T16:21:10.378Z,68.40
2019-03-04T16:23:40.859Z,68.40
2019-03-04T16:26:13.810Z,69.30
2019-03-04T16:28:44.892Z,73.70
2019-03-04T16:31:15.360Z,77.20
2019-03-04T16:33:45.914Z,78.00
2019-03-04T16:36:17.769Z,77.30
2019-03-04T16:38:48.383Z,75.50
2019-03-04T16:41:18.820Z,77.70
2019-03-04T16:43:49.235Z,81.60
2019-03-04T16:46:19.661Z,83.80
2019-03-04T16:48:50.109Z,83.40
2019-03-04T16:51:20.642Z,90.00
2019-03-04T16:53:51.366Z,91.90
2019-03-04T16:56:21.820Z,93.20
2019-03-04T16:58:52.321Z,96.30
2019-03-04T17:01:22.734Z,98.00
2019-03-04T17:03:53.321Z,98.30
2019-03-04T17:06:23.971Z,98.90
2019-03-04T17:08:54.541Z,99.50
2019-03-04T17:11:25.229Z,99.80
2019-03-04T17:13:55.701Z,99.90
2019-03-04T17:16:26.120Z,99.90
2019-03-04T17:18:56.555Z,99.90
2019-03-04T17:21:26.985Z,99.90
2019-03-04T17:23:57.409Z,99.90
2019-03-04T17:26:27.826Z,99.90
2019-03-04T17:28:58.253Z,99.90
2019-03-04T17:31:28.678Z,99.90
2019-03-04T17:33:59.105Z,99.90
2019-03-04T17:36:29.593Z,99.90
2019-03-04T17:39:00.073Z,99.90
2019-03-04T17:41:30.489Z,99.90
2019-03-04T17:44:00.917Z,99.90
2019-03-04T17:46:31.718Z,99.90
2019-03-04T17:49:02.109Z,99.90
2019-03-04T17:51:32.754Z,99.90
2019-03-04T17:54:03.357Z,99.90
2019-03-04T17:56:33.770Z,99.90
2019-03-04T17:59:04.194Z,99.90
2019-03-04T18:01:34.621Z,99.90
2019-03-04T18:04:05.153Z,99.90
2019-03-04T18:06:35.822Z,99.90
2019-03-04T18:09:08.064Z,99.90
2019-03-04T18:12:02.033Z,99.90
2019-03-04T18:14:32.534Z,99.90
2019-03-04T18:17:03.000Z,99.90
2019-03-04T18:19:33.414Z,99.90
2019-03-04T18:22:57.092Z,99.90
2019-03-04T18:25:32.793Z,99.90
2019-03-04T18:28:06.917Z,99.90
2019-03-04T18:31:10.969Z,99.90
2019-03-04T18:34:03.892Z,99.90
2019-03-04T18:37:22.291Z,99.90
2019-03-04T18:40:32.448Z,99.90
2019-03-04T18:43:38.772Z,99.90
2019-03-04T18:46:45.450Z,99.90
2019-03-04T18:49:15.825Z,99.90
2019-03-04T18:51:46.233Z,99.90
2019-03-04T18:54:18.360Z,99.90
2019-03-04T18:56:49.034Z,99.90
2019-03-04T18:59:19.459Z,99.90
2019-03-04T19:01:50.163Z,99.90
2019-03-04T19:04:20.591Z,99.90
2019-03-04T19:06:51.101Z,99.90
2019-03-04T19:09:21.709Z,99.90
2019-03-04T19:11:52.110Z,99.90
2019-03-04T19:14:22.638Z,99.90
2019-03-04T19:16:53.129Z,99.90
2019-03-04T19:19:26.943Z,99.90
2019-03-04T19:21:57.411Z,99.90
2019-03-04T19:24:27.896Z,99.90
2019-03-04T19:26:58.409Z,99.90
2019-03-04T19:29:28.884Z,99.90
2019-03-04T19:31:59.322Z,99.90
2019-03-04T19:34:29.761Z,99.90
2019-03-04T19:37:00.214Z,99.90
2019-03-04T19:39:30.726Z,99.90
2019-03-04T19:42:01.134Z,99.90
2019-03-04T19:44:31.550Z,99.90
2019-03-04T19:47:02.049Z,99.90
2019-03-04T19:49:32.559Z,99.90
2019-03-04T19:52:03.046Z,99.90
2019-03-04T19:54:33.462Z,99.90
2019-03-04T19:57:03.942Z,99.90
2019-03-04T19:59:34.429Z,99.90
2019-03-04T20:02:05.639Z,99.90
2019-03-04T20:04:36.113Z,99.90
2019-03-04T20:07:06.811Z,99.90
2019-03-04T20:09:37.253Z,99.90
2019-03-04T20:12:07.804Z,99.90
2019-03-04T20:14:57.063Z,99.90
2019-03-04T20:17:28.106Z,99.90
2019-03-04T20:19:58.672Z,99.90
2019-03-04T20:22:29.172Z,99.90
2019-03-04T20:24:59.684Z,99.90
2019-03-04T20:27:30.133Z,99.90
2019-03-04T20:30:00.608Z,99.90
2019-03-04T20:32:31.136Z,99.90
2019-03-04T20:35:02.219Z,99.90
2019-03-04T20:37:33.976Z,99.90
2019-03-04T20:40:05.375Z,99.90
2019-03-04T20:42:35.898Z,99.90
2019-03-04T20:45:08.696Z,99.90
2019-03-04T20:47:39.245Z,99.90
2019-03-04T20:50:12.812Z,99.90
2019-03-04T20:52:43.925Z,99.90
2019-03-04T20:55:15.519Z,99.90
2019-03-04T20:57:46.412Z,99.90
2019-03-04T21:00:20.474Z,99.90
2019-03-04T21:02:51.187Z,99.90
2019-03-04T21:05:21.963Z,99.90
2019-03-04T21:07:52.605Z,99.90
2019-03-04T21:10:23.237Z,99.90
2019-03-04T21:12:55.505Z,99.90
2019-03-04T21:15:26.356Z,99.90
2019-03-04T21:17:57.118Z,99.90
2019-03-04T21:20:28.493Z,99.90
2019-03-04T21:22:59.071Z,99.90
2019-03-04T21:25:56.335Z,99.90
2019-03-04T21:28:34.593Z,99.90
2019-03-04T21:31:25.409Z,99.90
2019-03-04T21:34:16.967Z,99.90
2019-03-04T21:36:52.210Z,99.90
2019-03-04T21:39:24.117Z,99.90
2019-03-04T21:42:04.630Z,99.90
2019-03-04T21:45:38.334Z,99.90
2019-03-04T21:48:16.093Z,99.90
2019-03-04T21:50:52.037Z,99.90
2019-03-04T21:53:27.752Z,99.90
2019-03-04T21:56:23.160Z,99.90
2019-03-04T21:58:54.735Z,99.90
2019-03-04T22:01:29.862Z,99.90
2019-03-04T22:04:00.909Z,99.90
2019-03-04T22:06:32.876Z,99.90
2019-03-04T22:09:03.977Z,99.90
2019-03-04T22:11:34.414Z,99.90
2019-03-04T22:14:05.047Z,99.90
2019-03-04T22:16:35.629Z,99.90
2019-03-04T22:19:06.309Z,99.90
2019-03-04T22:21:36.791Z,99.90
2019-03-04T22:25:00.834Z,99.90
2019-03-04T22:27:31.271Z,99.90
2019-03-04T22:30:02.157Z,99.90
2019-03-04T22:32:32.623Z,99.90
2019-03-04T22:35:03.821Z,99.90
2019-03-04T22:37:34.322Z,99.90
2019-03-04T22:40:05.160Z,99.90
2019-03-04T22:42:35.653Z,99.90
2019-03-04T22:45:08.377Z,99.90
2019-03-04T22:47:38.822Z,99.90
2019-03-04T22:50:10.121Z,99.90
2019-03-04T22:52:40.743Z,99.90
2019-03-04T22:55:13.642Z,99.90
2019-03-04T22:57:44.075Z,99.90
2019-03-04T23:01:06.614Z,99.90
2019-03-04T23:03:37.309Z,99.90
2019-03-04T23:06:08.070Z,99.90
2019-03-04T23:08:38.777Z,99.90
2019-03-04T23:11:09.231Z,99.90
2019-03-04T23:14:01.746Z,99.90
2019-03-04T23:16:33.851Z,99.90
2019-03-04T23:19:04.793Z,99.90
2019-03-04T23:21:35.204Z,99.90
2019-03-04T23:24:05.640Z,99.90
2019-03-04T23:26:36.062Z,99.90
2019-03-04T23:29:06.534Z,99.90
2019-03-04T23:31:37.091Z,99.90
2019-03-04T23:34:07.558Z,99.90
2019-03-04T23:36:38.047Z,99.90
2019-03-04T23:39:08.908Z,99.90
2019-03-04T23:41:39.342Z,99.90
2019-03-04T23:44:09.766Z,99.90
2019-03-04T23:46:40.261Z,99.90
2019-03-04T23:49:10.735Z,99.90
2019-03-04T23:51:41.456Z,99.90
2019-03-04T23:54:11.887Z,99.90
2019-03-04T23:56:42.309Z,99.90
2019-03-04T23:59:12.740Z,99.90
